Time;durP1;ratioP1;P1;durP2;ratioP2;P2;SDS_P1;SDS_P2;PMS_P1;PMS_P2;Temp;Humidity;BMP_temperature;BMP_pressure;BME280_temperature;BME280_humidity;BME280_pressure;Samples;Min_cycle;Max_cycle;Signal;HPM_P1;HPM_P2
2021/05/07 00:00:40;;;;;;;2.60;1.38;;;4.60;99.90;;;;;;5028879;28;20045;-66
2021/05/07 00:03:05;;;;;;;5.05;1.40;;;4.60;99.90;;;;;;5028045;28;20046;-66
2021/05/07 00:05:31;;;;;;;3.03;1.52;;;4.50;99.90;;;;;;5028225;28;20036;-66
2021/05/07 00:07:58;;;;;;;3.10;1.65;;;4.50;99.90;;;;;;5025605;28;20084;-66
2021/05/07 00:10:25;;;;;;;2.80;1.83;;;4.50;99.90;;;;;;5024993;28;20042;-66
2021/05/07 00:12:51;;;;;;;2.45;1.85;;;4.60;99.90;;;;;;5025282;28;20041;-66
2021/05/07 00:15:17;;;;;;;2.83;1.77;;;4.50;99.90;;;;;;5026867;28;20952;-66
2021/05/07 00:17:44;;;;;;;2.85;1.50;;;4.50;99.90;;;;;;5025658;28;20041;-66
2021/05/07 00:20:10;;;;;;;4.18;2.33;;;4.40;99.90;;;;;;5027625;28;20108;-66
2021/05/07 00:22:37;;;;;;;3.17;1.55;;;4.40;99.90;;;;;;5028304;28;20507;-66
2021/05/07 00:25:03;;;;;;;4.32;1.33;;;4.40;99.90;;;;;;5025128;28;20040;-66
2021/05/07 00:27:29;;;;;;;2.03;1.25;;;4.40;99.90;;;;;;5026104;28;20076;-66
2021/05/07 00:29:55;;;;;;;2.28;1.00;;;4.40;99.90;;;;;;5025619;28;20069;-66
2021/05/07 00:32:20;;;;;;;2.10;1.25;;;4.40;99.90;;;;;;5024288;28;20029;-66
2021/05/07 00:34:46;;;;;;;3.92;1.15;;;4.40;99.90;;;;;;5027143;28;20498;-66
2021/05/07 00:37:12;;;;;;;1.30;0.80;;;4.40;99.90;;;;;;5023328;28;20041;-66
2021/05/07 00:39:38;;;;;;;2.30;1.20;;;4.40;99.90;;;;;;5026687;28;20049;-66
2021/05/07 00:42:05;;;;;;;2.75;1.00;;;4.40;99.90;;;;;;5018936;28;20129;-66
2021/05/07 00:44:33;;;;;;;1.80;1.00;;;4.40;99.90;;;;;;5019111;28;20052;-66
2021/05/07 00:47:04;;;;;;;1.30;1.00;;;4.40;99.90;;;;;;5022268;28;20487;-66
2021/05/07 00:49:32;;;;;;;1.40;1.30;;;4.40;99.90;;;;;;5021608;28;20037;-66
2021/05/07 00:51:58;;;;;;;2.05;1.13;;;4.40;99.90;;;;;;5019141;28;20041;-66
2021/05/07 00:54:24;;;;;;;2.45;1.20;;;4.40;99.90;;;;;;5020245;28;20118;-66
2021/05/07 00:56:50;;;;;;;1.65;1.20;;;4.50;99.90;;;;;;5020376;28;20816;-66
2021/05/07 00:59:15;;;;;;;3.13;0.98;;;4.50;99.90;;;;;;5019442;28;20053;-66
2021/05/07 01:01:41;;;;;;;3.22;1.10;;;4.40;99.90;;;;;;5021389;28;20039;-66
2021/05/07 01:04:07;;;;;;;0.80;0.73;;;4.40;99.90;;;;;;5020275;28;20037;-66
2021/05/07 01:06:33;;;;;;;2.10;1.17;;;4.40;99.90;;;;;;5018238;28;20048;-66
2021/05/07 01:08:58;;;;;;;1.98;0.90;;;4.30;99.90;;;;;;5017615;28;20072;-66
2021/05/07 01:11:24;;;;;;;1.70;1.20;;;4.30;99.90;;;;;;5020695;28;20041;-66
2021/05/07 01:13:49;;;;;;;1.73;0.90;;;4.30;99.90;;;;;;5018401;28;20041;-66
2021/05/07 01:16:16;;;;;;;2.03;1.13;;;4.20;99.90;;;;;;5019512;28;20037;-66
2021/05/07 01:18:42;;;;;;;1.63;1.02;;;4.20;99.90;;;;;;5016324;28;20048;-66
2021/05/07 01:21:08;;;;;;;2.03;0.90;;;4.10;99.90;;;;;;5019118;28;20037;-66
2021/05/07 01:23:33;;;;;;;2.00;0.85;;;4.10;99.90;;;;;;5018016;28;20042;-66
2021/05/07 01:25:59;;;;;;;1.63;1.00;;;4.10;99.90;;;;;;5017123;28;20152;-66
2021/05/07 01:28:27;;;;;;;1.70;1.15;;;4.10;99.90;;;;;;5017774;28;20041;-66
2021/05/07 01:30:52;;;;;;;1.50;1.20;;;4.10;99.90;;;;;;5018324;28;20498;-66
2021/05/07 01:33:18;;;;;;;2.22;1.08;;;4.10;99.90;;;;;;5017080;28;20099;-66
2021/05/07 01:35:45;;;;;;;1.77;1.30;;;4.10;99.90;;;;;;5020139;28;20049;-66
2021/05/07 01:38:14;;;;;;;1.65;1.05;;;4.10;99.90;;;;;;5016047;28;20050;-66
2021/05/07 01:40:42;;;;;;;2.95;1.27;;;4.00;99.90;;;;;;5023494;28;20049;-66
2021/05/07 01:43:08;;;;;;;1.60;1.10;;;4.00;99.90;;;;;;5022832;28;20045;-66
2021/05/07 01:45:36;;;;;;;2.22;0.90;;;3.80;99.90;;;;;;5023751;28;20033;-66
2021/05/07 01:48:03;;;;;;;4.53;1.65;;;4.00;99.90;;;;;;5023949;28;20037;-66
2021/05/07 01:50:32;;;;;;;2.15;1.50;;;4.00;99.90;;;;;;5022514;28;20034;-66
2021/05/07 01:52:59;;;;;;;2.35;1.42;;;4.00;99.90;;;;;;5021662;28;20485;-66
2021/05/07 01:55:28;;;;;;;1.70;1.35;;;3.90;99.90;;;;;;5023871;28;20048;-66
2021/05/07 01:57:54;;;;;;;1.80;1.17;;;4.00;99.90;;;;;;5026265;28;20114;-66
2021/05/07 02:00:26;;;;;;;2.67;1.27;;;4.00;99.90;;;;;;5025944;28;20116;-66
2021/05/07 02:02:53;;;;;;;2.28;1.30;;;3.90;99.90;;;;;;5025057;28;20046;-66
2021/05/07 02:05:19;;;;;;;3.00;1.60;;;3.90;99.90;;;;;;5026259;28;20045;-66
2021/05/07 02:07:46;;;;;;;2.00;1.45;;;3.90;99.90;;;;;;5025627;28;20045;-66
2021/05/07 02:10:15;;;;;;;1.98;1.48;;;3.90;99.90;;;;;;5025380;28;20227;-66
2021/05/07 02:12:40;;;;;;;1.80;1.20;;;3.90;99.90;;;;;;5025336;28;20115;-66
2021/05/07 02:15:12;;;;;;;2.35;1.30;;;3.90;99.90;;;;;;5025224;28;20468;-66
2021/05/07 02:17:38;;;;;;;2.92;1.70;;;3.90;99.90;;;;;;5024818;28;20053;-66
2021/05/07 02:20:05;;;;;;;1.55;1.20;;;3.80;99.90;;;;;;5025949;28;20042;-66
2021/05/07 02:22:31;;;;;;;2.20;1.60;;;3.80;99.90;;;;;;5027825;28;20112;-66
2021/05/07 02:24:57;;;;;;;2.15;1.65;;;3.80;99.90;;;;;;5024644;28;20041;-66
2021/05/07 02:27:23;;;;;;;3.10;2.03;;;3.80;99.90;;;;;;5026632;28;20060;-66
2021/05/07 02:29:49;;;;;;;2.15;1.80;;;3.80;99.90;;;;;;5025254;28;20164;-66
2021/05/07 02:32:15;;;;;;;2.17;1.52;;;3.90;99.90;;;;;;5023191;28;20514;-66
2021/05/07 02:34:41;;;;;;;4.72;2.35;;;3.80;99.90;;;;;;5025824;28;20046;-66
2021/05/07 02:37:06;;;;;;;2.47;2.17;;;3.80;99.90;;;;;;5026651;28;20041;-66
2021/05/07 02:39:32;;;;;;;2.92;2.10;;;3.80;99.90;;;;;;5028140;28;20033;-66
2021/05/07 02:41:58;;;;;;;2.67;2.10;;;3.80;99.90;;;;;;5023067;28;20183;-66
2021/05/07 02:44:23;;;;;;;2.70;2.28;;;3.70;99.90;;;;;;5026016;28;20076;-66
2021/05/07 02:46:49;;;;;;;3.80;2.28;;;3.70;99.90;;;;;;5023537;28;20494;-66
2021/05/07 02:49:15;;;;;;;3.70;2.35;;;3.70;99.90;;;;;;5024573;28;20048;-66
2021/05/07 02:51:40;;;;;;;3.65;2.50;;;3.90;99.90;;;;;;5021866;28;20475;-66
2021/05/07 02:54:06;;;;;;;3.05;2.15;;;3.70;99.90;;;;;;5023536;28;20049;-66
2021/05/07 02:56:32;;;;;;;3.70;2.13;;;3.60;99.90;;;;;;5026152;28;20302;-66
2021/05/07 02:58:57;;;;;;;2.95;2.63;;;3.70;99.90;;;;;;5025236;28;20041;-66
2021/05/07 03:01:23;;;;;;;2.50;2.30;;;3.60;99.90;;;;;;5025148;28;20484;-66
2021/05/07 03:03:50;;;;;;;2.85;2.53;;;3.60;99.90;;;;;;5022532;28;20052;-66
2021/05/07 03:06:17;;;;;;;4.20;2.40;;;3.60;99.90;;;;;;5021603;28;20546;-66
2021/05/07 03:08:43;;;;;;;2.95;2.40;;;3.60;99.90;;;;;;5021674;28;20126;-66
2021/05/07 03:11:09;;;;;;;3.53;2.50;;;3.60;99.90;;;;;;5025658;28;20080;-66
2021/05/07 03:13:35;;;;;;;4.13;3.00;;;3.50;99.90;;;;;;5027967;28;20045;-66
2021/05/07 03:16:01;;;;;;;2.70;2.50;;;3.50;99.90;;;;;;5026754;28;20100;-66
2021/05/07 03:18:28;;;;;;;2.42;1.98;;;3.60;99.90;;;;;;5028117;28;20045;-66
2021/05/07 03:20:55;;;;;;;3.05;2.72;;;3.50;99.90;;;;;;5027058;28;20053;-66
2021/05/07 03:23:26;;;;;;;5.53;2.47;;;3.60;99.90;;;;;;5026899;28;20405;-66
2021/05/07 03:25:51;;;;;;;3.15;2.85;;;3.50;99.90;;;;;;5025987;28;20041;-66
2021/05/07 03:28:17;;;;;;;5.03;2.95;;;3.50;99.90;;;;;;5026355;28;20040;-66
2021/05/07 03:30:42;;;;;;;3.00;2.72;;;3.50;99.90;;;;;;5025725;28;20554;-66
2021/05/07 03:33:08;;;;;;;3.88;2.40;;;3.50;99.90;;;;;;5025366;28;20041;-66
2021/05/07 03:35:35;;;;;;;3.97;2.70;;;3.40;99.90;;;;;;5026998;28;21818;-66
2021/05/07 03:38:02;;;;;;;3.15;2.60;;;3.40;99.90;;;;;;5026016;28;20154;-66
2021/05/07 03:40:28;;;;;;;3.42;2.30;;;3.40;99.90;;;;;;5026324;28;20403;-66
2021/05/07 03:42:54;;;;;;;4.72;2.60;;;3.50;99.90;;;;;;5027783;28;20042;-66
2021/05/07 03:45:20;;;;;;;4.80;3.03;;;3.40;99.90;;;;;;5027519;28;20117;-66
2021/05/07 03:47:46;;;;;;;2.40;2.20;;;3.40;99.90;;;;;;5026387;28;20033;-66
2021/05/07 03:50:12;;;;;;;3.15;2.67;;;3.40;99.90;;;;;;5027629;28;20077;-66
2021/05/07 03:52:38;;;;;;;3.20;2.95;;;3.40;99.90;;;;;;5025373;28;20188;-66
2021/05/07 03:55:06;;;;;;;3.47;2.83;;;3.40;99.90;;;;;;5023134;28;20041;-66
2021/05/07 03:57:32;;;;;;;2.97;2.65;;;3.40;99.90;;;;;;5024457;28;20045;-66
2021/05/07 04:00:06;;;;;;;3.30;2.97;;;3.30;99.90;;;;;;5028117;28;20037;-66
2021/05/07 04:02:31;;;;;;;3.80;2.38;;;3.40;99.90;;;;;;5025369;28;20147;-66
2021/05/07 04:04:57;;;;;;;2.88;2.58;;;3.40;99.90;;;;;;5028610;28;20504;-66
2021/05/07 04:07:24;;;;;;;2.75;2.40;;;3.40;99.90;;;;;;5023008;28;20041;-66
2021/05/07 04:10:03;;;;;;;4.38;2.85;;;3.40;99.90;;;;;;5024372;28;20053;-66
2021/05/07 04:15:01;;;;;;;3.92;2.42;;;3.40;99.90;;;;;;5023711;28;20128;-66
2021/05/07 04:17:27;;;;;;;4.60;2.70;;;3.40;99.90;;;;;;5024537;28;20091;-66
2021/05/07 04:19:53;;;;;;;3.83;2.90;;;3.50;99.90;;;;;;5025835;28;20504;-66
2021/05/07 04:22:20;;;;;;;4.80;3.08;;;3.50;99.90;;;;;;5023888;28;20050;-66
2021/05/07 04:24:46;;;;;;;2.85;2.40;;;3.50;99.90;;;;;;5022962;28;20091;-66
2021/05/07 04:27:11;;;;;;;3.08;2.45;;;3.60;99.90;;;;;;5025815;28;20426;-66
2021/05/07 04:29:37;;;;;;;4.40;3.38;;;3.50;99.90;;;;;;5027084;28;20033;-66
2021/05/07 04:32:03;;;;;;;5.40;2.80;;;3.50;99.90;;;;;;5021275;28;20121;-66
2021/05/07 04:34:29;;;;;;;3.55;3.25;;;3.50;99.90;;;;;;5025780;28;20488;-66
2021/05/07 04:36:55;;;;;;;3.53;2.80;;;3.50;99.90;;;;;;5024917;28;20561;-66
2021/05/07 04:39:21;;;;;;;5.72;3.33;;;3.60;99.90;;;;;;5023630;28;20041;-66
2021/05/07 04:41:47;;;;;;;3.45;2.88;;;3.50;99.90;;;;;;5021469;28;20048;-66
2021/05/07 04:44:13;;;;;;;2.88;2.55;;;3.60;99.90;;;;;;5021824;28;20488;-66
2021/05/07 04:46:38;;;;;;;3.28;2.60;;;3.60;99.90;;;;;;5023941;28;20126;-66
2021/05/07 04:49:04;;;;;;;3.55;2.33;;;3.60;99.90;;;;;;5023216;28;20511;-66
2021/05/07 04:51:30;;;;;;;3.70;1.80;;;3.60;99.90;;;;;;5020239;28;20045;-66
2021/05/07 04:53:58;;;;;;;4.53;2.00;;;3.60;99.90;;;;;;5020380;28;20037;-66
2021/05/07 04:56:24;;;;;;;2.63;1.50;;;3.50;99.90;;;;;;5019752;28;21913;-66
2021/05/07 04:58:50;;;;;;;4.40;1.60;;;3.60;99.90;;;;;;5019766;28;20053;-66
2021/05/07 05:01:16;;;;;;;2.08;1.42;;;3.60;99.90;;;;;;5023102;28;20794;-65
2021/05/07 05:03:42;;;;;;;1.27;1.00;;;3.70;99.90;;;;;;5020829;28;20073;-66
2021/05/07 05:06:07;;;;;;;1.15;0.65;;;3.70;99.90;;;;;;5026299;28;20076;-66
2021/05/07 05:08:33;;;;;;;1.98;1.10;;;3.90;99.90;;;;;;5021387;28;20041;-66
2021/05/07 05:10:59;;;;;;;1.60;0.57;;;4.00;99.90;;;;;;5027056;28;20490;-66
2021/05/07 05:13:26;;;;;;;0.70;0.40;;;4.20;99.90;;;;;;5026134;28;20041;-66
2021/05/07 05:15:53;;;;;;;2.35;0.85;;;4.50;99.90;;;;;;5025309;28;20065;-66
2021/05/07 05:18:30;;;;;;;1.38;0.32;;;5.00;99.90;;;;;;5027206;28;20045;-66
2021/05/07 05:20:59;;;;;;;0.80;0.20;;;5.90;99.90;;;;;;5027249;28;20088;-66
2021/05/07 05:23:26;;;;;;;0.70;0.20;;;7.10;99.90;;;;;;5024703;28;20033;-66
2021/05/07 05:25:53;;;;;;;0.82;0.40;;;8.20;99.90;;;;;;5025403;28;20045;-66
2021/05/07 05:28:19;;;;;;;0.43;0.20;;;8.90;99.60;;;;;;5025267;28;20041;-66
2021/05/07 05:30:45;;;;;;;0.77;0.38;;;9.00;98.40;;;;;;5025607;28;20124;-66
2021/05/07 05:33:11;;;;;;;1.20;0.20;;;8.80;97.70;;;;;;5026160;28;20037;-66
2021/05/07 05:35:36;;;;;;;0.40;0.30;;;8.70;97.80;;;;;;5026779;28;20044;-66
2021/05/07 05:38:03;;;;;;;0.68;0.20;;;9.20;97.90;;;;;;5026809;28;20214;-66
2021/05/07 05:40:29;;;;;;;0.50;0.28;;;10.20;96.60;;;;;;5022959;28;20502;-66
2021/05/07 05:42:55;;;;;;;1.30;0.30;;;10.80;94.90;;;;;;5023175;28;20046;-66
2021/05/07 05:45:23;;;;;;;0.40;0.20;;;11.10;93.80;;;;;;5025063;28;20033;-66
2021/05/07 05:48:04;;;;;;;3.45;0.30;;;11.60;93.30;;;;;;5025772;28;20034;-66
2021/05/07 05:50:31;;;;;;;0.60;0.28;;;12.40;91.50;;;;;;5025819;28;20048;-66
2021/05/07 05:52:57;;;;;;;1.35;0.30;;;13.00;89.10;;;;;;5026969;28;20045;-66
2021/05/07 05:55:23;;;;;;;2.63;0.20;;;13.30;87.00;;;;;;5025909;28;20052;-67
2021/05/07 05:57:49;;;;;;;0.63;0.20;;;13.20;87.60;;;;;;5024528;28;20049;-67
2021/05/07 06:00:16;;;;;;;0.63;0.32;;;13.20;88.60;;;;;;5024846;28;20065;-67
2021/05/07 06:02:42;;;;;;;0.30;0.20;;;13.10;89.60;;;;;;5022615;28;20403;-67
2021/05/07 06:05:09;;;;;;;0.55;0.20;;;13.00;87.00;;;;;;5026437;28;20041;-67
2021/05/07 06:07:35;;;;;;;0.73;0.20;;;12.70;86.60;;;;;;5024809;28;20045;-67
2021/05/07 06:10:02;;;;;;;1.10;0.43;;;12.40;88.90;;;;;;5020424;28;20041;-67
2021/05/07 06:12:31;;;;;;;2.00;0.65;;;12.20;89.80;;;;;;5023483;28;20053;-67
2021/05/07 06:14:57;;;;;;;1.77;0.40;;;12.20;90.30;;;;;;5025908;28;20037;-67
2021/05/07 06:17:23;;;;;;;0.65;0.20;;;12.30;90.50;;;;;;5020740;28;20045;-67
2021/05/07 06:19:48;;;;;;;0.60;0.30;;;12.40;90.60;;;;;;5022731;28;20038;-67
2021/05/07 06:22:15;;;;;;;1.27;0.32;;;12.50;90.40;;;;;;5026197;28;20045;-67
2021/05/07 06:24:41;;;;;;;0.43;0.30;;;12.70;90.00;;;;;;5024486;28;20483;-67
2021/05/07 06:27:06;;;;;;;0.88;0.20;;;12.80;89.00;;;;;;5029481;28;20057;-67
2021/05/07 06:29:32;;;;;;;0.73;0.30;;;12.90;87.10;;;;;;5028669;28;20121;-67
2021/05/07 06:31:58;;;;;;;1.10;0.25;;;12.90;87.60;;;;;;5027743;28;20529;-67
2021/05/07 06:34:24;;;;;;;0.40;0.25;;;13.00;88.20;;;;;;5030559;28;20047;-67
2021/05/07 06:36:50;;;;;;;0.82;0.30;;;13.10;87.90;;;;;;5027463;28;20104;-67
2021/05/07 06:39:15;;;;;;;0.63;0.30;;;13.20;87.60;;;;;;5029802;28;20045;-67
2021/05/07 06:41:41;;;;;;;1.55;0.63;;;13.40;87.60;;;;;;5026160;28;20037;-67
2021/05/07 06:44:08;;;;;;;1.38;0.40;;;13.50;87.10;;;;;;5026764;28;20064;-67
2021/05/07 06:46:34;;;;;;;2.60;0.32;;;13.60;87.80;;;;;;5028772;28;20042;-66
2021/05/07 06:48:59;;;;;;;1.25;0.40;;;13.80;87.60;;;;;;5026423;28;20503;-67
2021/05/07 06:51:27;;;;;;;0.93;0.40;;;14.10;86.70;;;;;;5027210;28;20037;-67
2021/05/07 06:53:53;;;;;;;1.00;0.30;;;14.40;86.80;;;;;;5029003;28;20164;-67
2021/05/07 06:56:22;;;;;;;0.93;0.50;;;14.50;81.90;;;;;;5028231;28;20064;-67
2021/05/07 06:58:49;;;;;;;1.90;0.63;;;14.50;83.30;;;;;;5028629;28;20045;-67
2021/05/07 07:01:14;;;;;;;3.50;0.75;;;14.30;80.20;;;;;;5029517;28;20037;-67
2021/05/07 07:03:41;;;;;;;1.35;0.55;;;14.40;84.00;;;;;;5029276;28;20045;-67
2021/05/07 07:06:07;;;;;;;2.13;0.80;;;14.50;84.90;;;;;;5027991;28;20466;-67
2021/05/07 07:08:33;;;;;;;1.83;0.82;;;14.40;80.90;;;;;;5028143;28;20055;-67
2021/05/07 07:10:58;;;;;;;1.20;0.70;;;14.50;81.20;;;;;;5026731;28;20037;-67
2021/05/07 07:13:25;;;;;;;1.75;0.90;;;14.40;82.50;;;;;;5027273;28;20092;-67
2021/05/07 07:15:50;;;;;;;4.03;0.95;;;14.60;82.40;;;;;;5028160;28;20065;-67
2021/05/07 07:18:22;;;;;;;1.85;0.70;;;14.60;82.10;;;;;;5025354;28;20131;-67
2021/05/07 07:20:48;;;;;;;1.55;0.77;;;14.70;82.50;;;;;;5026678;28;20045;-67
2021/05/07 07:23:16;;;;;;;1.73;0.82;;;14.70;80.10;;;;;;5027946;28;20046;-67
2021/05/07 07:25:43;;;;;;;1.33;0.65;;;14.70;81.10;;;;;;5027020;28;20038;-67
2021/05/07 07:28:09;;;;;;;1.70;0.70;;;14.60;80.70;;;;;;5028706;28;20045;-67
2021/05/07 07:30:35;;;;;;;0.98;0.55;;;14.60;80.50;;;;;;5026368;28;20439;-67
2021/05/07 07:33:01;;;;;;;2.33;1.10;;;14.70;81.50;;;;;;5026966;28;20037;-67
2021/05/07 07:35:27;;;;;;;2.55;0.90;;;14.70;79.90;;;;;;5026530;28;20037;-67
2021/05/07 07:37:53;;;;;;;3.38;1.08;;;14.60;80.40;;;;;;5028749;28;20045;-67
2021/05/07 07:40:19;;;;;;;1.88;0.65;;;14.60;80.70;;;;;;5028035;28;20068;-67
2021/05/07 07:42:45;;;;;;;2.72;1.00;;;14.70;79.30;;;;;;5023392;28;20147;-67
2021/05/07 07:45:12;;;;;;;1.48;0.73;;;14.60;79.30;;;;;;5026575;28;20029;-67
2021/05/07 07:47:38;;;;;;;1.05;0.70;;;14.70;79.40;;;;;;5028179;28;20653;-68
2021/05/07 07:50:06;;;;;;;2.25;0.90;;;14.50;80.80;;;;;;5028007;28;20078;-67
2021/05/07 07:52:32;;;;;;;5.45;1.38;;;14.60;80.20;;;;;;5028434;28;20149;-67
2021/05/07 07:55:03;;;;;;;2.25;0.82;;;14.60;78.60;;;;;;5026159;28;20043;-67
2021/05/07 07:57:29;;;;;;;4.50;0.80;;;14.50;76.90;;;;;;5026147;28;20045;-68
2021/05/07 07:59:55;;;;;;;4.30;0.70;;;14.50;78.80;;;;;;5024500;28;20045;-67
2021/05/07 08:02:21;;;;;;;2.85;0.80;;;14.70;80.20;;;;;;5026682;28;20108;-68
2021/05/07 08:04:47;;;;;;;2.50;0.85;;;14.40;75.00;;;;;;5027461;28;20148;-68
2021/05/07 08:07:13;;;;;;;1.98;0.60;;;14.40;76.80;;;;;;5027803;28;20042;-68
2021/05/07 08:09:39;;;;;;;6.55;1.20;;;14.50;77.80;;;;;;5025515;28;20041;-68
2021/05/07 08:12:06;;;;;;;3.13;1.00;;;14.50;77.40;;;;;;5027168;28;20514;-68
2021/05/07 08:14:32;;;;;;;4.38;1.15;;;14.30;78.60;;;;;;5024246;28;20072;-68
2021/05/07 08:16:58;;;;;;;1.73;0.60;;;14.20;77.00;;;;;;5028168;28;20038;-68
2021/05/07 08:19:24;;;;;;;2.47;0.70;;;14.10;78.40;;;;;;5023706;28;20083;-68
2021/05/07 08:21:50;;;;;;;2.08;0.70;;;14.20;78.70;;;;;;5026134;28;20099;-68
2021/05/07 08:24:16;;;;;;;5.60;0.93;;;14.30;78.20;;;;;;5024920;28;20106;-68
2021/05/07 08:26:42;;;;;;;2.58;0.60;;;14.50;76.40;;;;;;5024793;28;20037;-68
2021/05/07 08:29:08;;;;;;;2.08;0.88;;;14.40;73.20;;;;;;5023599;28;20053;-68
2021/05/07 08:31:34;;;;;;;2.42;0.70;;;14.50;74.40;;;;;;5023870;28;20060;-68
2021/05/07 08:34:00;;;;;;;2.40;0.70;;;14.60;75.00;;;;;;5019937;28;20051;-68
2021/05/07 08:36:26;;;;;;;2.97;0.55;;;14.60;69.20;;;;;;5022126;28;20040;-68
2021/05/07 08:38:52;;;;;;;2.55;0.70;;;14.30;68.60;;;;;;5021381;28;20115;-68
2021/05/07 08:41:18;;;;;;;2.47;0.60;;;14.40;73.60;;;;;;5021419;28;20037;-68
2021/05/07 08:43:44;;;;;;;2.38;0.73;;;14.70;75.70;;;;;;5023710;28;20049;-68
2021/05/07 08:46:10;;;;;;;1.90;0.40;;;14.90;73.50;;;;;;5025128;28;20384;-68
2021/05/07 08:48:38;;;;;;;2.78;0.43;;;14.60;62.80;;;;;;5025836;28;20056;-68
2021/05/07 08:51:05;;;;;;;3.30;0.70;;;14.20;64.00;;;;;;5027306;28;20040;-68
2021/05/07 08:53:32;;;;;;;3.15;0.55;;;14.10;67.20;;;;;;5022973;28;20065;-68
2021/05/07 08:56:05;;;;;;;1.48;0.50;;;14.20;67.90;;;;;;5023596;28;20044;-68
2021/05/07 08:58:31;;;;;;;5.10;0.70;;;14.50;70.40;;;;;;5023088;28;20064;-67
2021/05/07 09:00:57;;;;;;;4.78;0.95;;;14.80;68.40;;;;;;5029331;28;20082;-68
2021/05/07 09:03:45;;;;;;;3.33;0.75;;;14.80;67.50;;;;;;5027134;28;20045;-68
2021/05/07 09:06:18;;;;;;;2.97;0.60;;;14.50;67.50;;;;;;5024073;28;20464;-68
2021/05/07 09:08:45;;;;;;;1.15;0.50;;;14.50;69.00;;;;;;5028439;28;20044;-68
2021/05/07 09:11:11;;;;;;;3.95;0.52;;;14.40;69.50;;;;;;5028541;28;20376;-68
2021/05/07 09:13:37;;;;;;;3.97;1.00;;;14.10;68.60;;;;;;5033629;28;20048;-68
2021/05/07 09:16:08;;;;;;;6.53;1.25;;;13.80;70.80;;;;;;5029372;28;20049;-68
2021/05/07 09:18:51;;;;;;;3.60;0.73;;;13.40;70.40;;;;;;5030647;28;20443;-68
2021/05/07 09:21:17;;;;;;;4.10;0.80;;;13.40;73.50;;;;;;5039427;28;20123;-68
2021/05/07 09:23:46;;;;;;;3.17;0.73;;;13.60;74.40;;;;;;5022111;28;20049;-68
2021/05/07 09:26:14;;;;;;;2.15;0.70;;;13.80;73.90;;;;;;5023315;28;20087;-68
2021/05/07 09:28:51;;;;;;;3.80;0.70;;;14.00;74.40;;;;;;5026062;28;20049;-68
2021/05/07 09:31:18;;;;;;;1.80;0.50;;;14.40;75.50;;;;;;5025528;28;20045;-68
2021/05/07 09:33:47;;;;;;;4.35;0.70;;;14.60;73.60;;;;;;5021339;28;20087;-68
2021/05/07 09:36:27;;;;;;;3.22;1.05;;;14.80;72.50;;;;;;5024368;28;20045;-69
2021/05/07 09:38:53;;;;;;;2.95;0.60;;;15.00;70.40;;;;;;5023398;28;20137;-70
2021/05/07 09:41:20;;;;;;;2.17;0.65;;;14.90;66.50;;;;;;5026401;28;20045;-68
2021/05/07 09:43:46;;;;;;;1.83;0.47;;;15.00;69.50;;;;;;5024787;28;20117;-68
2021/05/07 09:46:11;;;;;;;2.42;0.95;;;15.10;68.50;;;;;;5022354;28;20112;-68
2021/05/07 09:48:43;;;;;;;1.58;0.50;;;14.90;63.00;;;;;;5028004;28;20041;-69
2021/05/07 09:51:12;;;;;;;3.42;0.45;;;14.70;64.00;;;;;;5027928;28;20500;-68
2021/05/07 09:53:39;;;;;;;1.15;0.40;;;14.20;64.80;;;;;;5026956;28;20124;-68
2021/05/07 09:56:17;;;;;;;3.33;0.30;;;13.90;67.10;;;;;;5025022;28;20033;-68
2021/05/07 09:58:43;;;;;;;1.98;0.40;;;13.60;67.30;;;;;;5025501;28;20045;-68
2021/05/07 10:01:09;;;;;;;0.70;0.38;;;13.30;66.80;;;;;;5030097;28;20077;-68
2021/05/07 10:03:35;;;;;;;1.45;0.30;;;13.40;69.20;;;;;;5030469;28;20037;-68
2021/05/07 10:06:01;;;;;;;0.93;0.25;;;13.70;68.70;;;;;;5030690;28;20034;-68
2021/05/07 10:08:29;;;;;;;2.13;0.40;;;14.10;70.70;;;;;;5031557;28;20064;-68
2021/05/07 10:10:59;;;;;;;1.92;0.50;;;14.50;70.80;;;;;;5028887;28;20091;-68
2021/05/07 10:13:31;;;;;;;0.75;0.30;;;14.70;66.90;;;;;;5030831;28;20029;-69
2021/05/07 10:16:26;;;;;;;1.15;0.30;;;14.40;61.30;;;;;;5030105;28;20030;-68
2021/05/07 10:19:00;;;;;;;1.00;0.30;;;13.90;60.80;;;;;;5028557;28;20045;-68
2021/05/07 10:21:36;;;;;;;1.90;0.55;;;13.70;64.40;;;;;;5031541;28;20033;-68
2021/05/07 10:24:01;;;;;;;;;;;13.90;67.20;;;;;;5030960;28;20069;-68
2021/05/07 10:26:35;;;;;;;;;;;14.10;69.10;;;;;;5031712;28;19967;-69
2021/05/07 10:29:01;;;;;;;0.85;0.30;;;14.40;70.20;;;;;;5030553;28;19925;-68
2021/05/07 10:31:27;;;;;;;1.70;0.20;;;14.70;62.20;;;;;;5031461;28;20063;-68
2021/05/07 10:34:03;;;;;;;3.03;0.50;;;14.70;60.30;;;;;;5023913;28;20038;-68
2021/05/07 10:36:43;;;;;;;0.43;0.20;;;14.50;59.90;;;;;;5029590;28;20044;-68
2021/05/07 10:39:17;;;;;;;2.38;0.30;;;14.50;63.00;;;;;;5028706;28;20128;-68
2021/05/07 10:41:43;;;;;;;1.85;0.35;;;14.80;64.20;;;;;;5025341;28;20049;-69
2021/05/07 10:44:10;;;;;;;2.17;0.50;;;15.00;65.60;;;;;;5027580;28;20079;-68
2021/05/07 10:46:36;;;;;;;4.75;0.40;;;14.70;63.30;;;;;;5030471;28;20111;-68
2021/05/07 10:49:02;;;;;;;1.60;0.50;;;14.60;65.20;;;;;;5028948;28;20052;-69
2021/05/07 10:51:28;;;;;;;2.53;0.45;;;14.80;66.70;;;;;;5025075;28;20040;-68
2021/05/07 10:54:08;;;;;;;1.58;0.52;;;15.00;66.20;;;;;;5028816;28;20400;-69
2021/05/07 10:56:39;;;;;;;1.05;0.63;;;15.10;63.40;;;;;;5029051;28;20030;-69
2021/05/07 10:59:12;;;;;;;2.90;0.40;;;15.30;64.30;;;;;;5025379;28;20049;-69
2021/05/07 11:01:38;;;;;;;0.77;0.35;;;15.50;65.20;;;;;;5029618;28;20034;-69
2021/05/07 11:04:13;;;;;;;0.90;0.40;;;15.70;64.40;;;;;;5028330;28;20527;-69
2021/05/07 11:06:45;;;;;;;2.42;0.40;;;15.90;58.40;;;;;;5028907;28;20491;-69
2021/05/07 11:09:31;;;;;;;1.05;0.50;;;15.80;60.60;;;;;;5025667;28;20041;-69
2021/05/07 11:12:02;;;;;;;;;;;15.60;57.60;;;;;;5026499;28;20112;-69
2021/05/07 11:14:29;;;;;;;1.05;0.35;;;15.20;56.10;;;;;;5027273;28;19971;-69
2021/05/07 11:16:55;;;;;;;0.80;0.30;;;14.90;57.90;;;;;;5026466;28;20041;-69
2021/05/07 11:19:29;;;;;;;2.15;0.30;;;14.40;59.60;;;;;;5026464;28;20440;-69
2021/05/07 11:21:58;;;;;;;3.45;0.43;;;14.40;62.90;;;;;;5022340;28;20045;-69
2021/05/07 11:24:28;;;;;;;0.77;0.20;;;14.60;65.70;;;;;;5023166;28;20041;-68
2021/05/07 11:26:55;;;;;;;2.47;0.50;;;14.60;60.80;;;;;;5023387;28;20038;-69
2021/05/07 11:29:29;;;;;;;3.38;0.25;;;14.50;62.50;;;;;;5024383;28;20563;-68
2021/05/07 11:32:06;;;;;;;2.70;0.50;;;14.30;65.00;;;;;;5024806;28;20056;-69
2021/05/07 11:34:32;;;;;;;2.00;0.30;;;14.40;65.50;;;;;;5031118;28;20037;-69
2021/05/07 11:36:59;;;;;;;1.48;0.20;;;14.70;67.40;;;;;;5025738;28;20044;-69
2021/05/07 11:39:26;;;;;;;1.30;0.30;;;15.10;69.90;;;;;;5026764;28;20041;-69
2021/05/07 11:41:51;;;;;;;0.95;0.30;;;15.10;67.10;;;;;;5027781;28;20051;-69
2021/05/07 11:44:17;;;;;;;1.50;0.30;;;15.20;65.90;;;;;;5027795;28;20037;-69
2021/05/07 11:47:06;;;;;;;3.05;0.30;;;15.10;62.60;;;;;;5031612;28;20041;-69
2021/05/07 11:49:38;;;;;;;2.30;0.30;;;14.90;59.70;;;;;;5033640;28;20467;-69
2021/05/07 11:52:05;;;;;;;3.95;0.52;;;14.70;61.80;;;;;;5029405;28;20068;-68
2021/05/07 11:54:41;;;;;;;3.83;0.32;;;14.70;62.40;;;;;;5027488;28;20037;-69
2021/05/07 11:57:07;;;;;;;1.40;0.35;;;14.30;60.00;;;;;;5027151;28;20112;-68
2021/05/07 11:59:33;;;;;;;2.25;0.45;;;14.40;63.70;;;;;;5027542;28;20128;-69
2021/05/07 12:02:03;;;;;;;1.92;0.68;;;14.20;60.00;;;;;;5027421;28;20107;-69
2021/05/07 12:04:29;;;;;;;2.42;0.30;;;14.00;61.30;;;;;;5026482;28;20045;-69
2021/05/07 12:06:55;;;;;;;0.47;0.30;;;14.20;64.90;;;;;;5028269;28;20034;-69
2021/05/07 12:09:21;;;;;;;2.17;0.45;;;14.30;64.10;;;;;;5026223;28;20057;-68
2021/05/07 12:11:56;;;;;;;1.63;0.30;;;14.60;61.60;;;;;;5026899;28;20049;-69
2021/05/07 12:14:22;;;;;;;1.95;0.32;;;14.90;60.90;;;;;;5027359;28;20111;-69
2021/05/07 12:16:58;;;;;;;2.03;1.00;;;15.00;60.20;;;;;;5026063;28;20045;-69
2021/05/07 12:19:24;;;;;;;1.70;0.50;;;14.90;59.70;;;;;;5026686;28;20407;-69
2021/05/07 12:21:50;;;;;;;1.50;0.35;;;14.70;57.40;;;;;;5026937;28;20048;-69
2021/05/07 12:24:26;;;;;;;3.10;0.30;;;14.30;60.20;;;;;;5027576;28;20041;-68
2021/05/07 12:26:51;;;;;;;2.15;0.47;;;14.40;61.30;;;;;;5031666;28;20049;-69
2021/05/07 12:29:17;;;;;;;1.20;0.30;;;14.50;60.80;;;;;;5028932;28;20456;-69
2021/05/07 12:31:43;;;;;;;1.63;0.40;;;14.80;59.10;;;;;;5024779;28;20070;-68
2021/05/07 12:34:19;;;;;;;3.35;0.77;;;15.10;61.20;;;;;;5028396;28;20041;-69
2021/05/07 12:36:57;;;;;;;4.63;1.67;;;15.40;60.20;;;;;;5025572;28;20061;-68
2021/05/07 12:39:28;;;;;;;1.08;0.45;;;15.50;59.70;;;;;;5027082;28;20057;-68
2021/05/07 12:41:55;;;;;;;3.83;0.50;;;15.50;57.50;;;;;;5027260;28;20049;-68
2021/05/07 12:44:25;;;;;;;1.13;0.40;;;15.10;56.00;;;;;;5026855;28;20535;-69
2021/05/07 12:46:50;;;;;;;2.05;0.40;;;15.10;58.50;;;;;;5026844;28;20510;-69
2021/05/07 12:49:18;;;;;;;1.73;0.40;;;15.20;55.10;;;;;;5026547;28;20041;-69
2021/05/07 12:51:44;;;;;;;7.68;1.00;;;15.30;57.80;;;;;;5026726;28;20108;-69
2021/05/07 12:54:10;;;;;;;1.00;0.35;;;15.50;59.70;;;;;;5027252;28;20064;-69
2021/05/07 12:56:40;;;;;;;3.03;0.30;;;15.50;57.00;;;;;;5027867;28;20042;-68